Time;durP1;ratioP1;P1;durP2;ratioP2;P2;SDS_P1;SDS_P2;PMS_P1;PMS_P2;Temp;Humidity;BMP_temperature;BMP_pressure;BME280_temperature;BME280_humidity;BME280_pressure;Samples;Min_cycle;Max_cycle;Signal;HPM_P1;HPM_P2
2022/02/16 00:00:26;;;;;;;13.73;6.60;;;;;;;;;;4879864;29;20040;-72
2022/02/16 00:02:52;;;;;;;10.20;5.20;;;;;;;;;;4884375;29;20032;-72
2022/02/16 00:05:18;;;;;;;10.73;4.90;;;;;;;;;;4896032;29;20052;-72
2022/02/16 00:07:44;;;;;;;16.90;9.55;;;;;;;;;;4881554;29;20077;-72
2022/02/16 00:10:12;;;;;;;22.20;11.55;;;;;;;;;;4878015;29;20078;-72
2022/02/16 00:12:38;;;;;;;23.25;12.80;;;;;;;;;;4878199;29;20449;-72
2022/02/16 00:15:04;;;;;;;26.17;14.48;;;;;;;;;;4888396;29;20661;-72
2022/02/16 00:17:30;;;;;;;22.08;11.35;;;;;;;;;;4877513;29;20045;-72
2022/02/16 00:19:56;;;;;;;24.13;12.32;;;;;;;;;;4885466;29;20037;-72
2022/02/16 00:22:23;;;;;;;24.83;12.65;;;;;;;;;;4884404;29;20051;-72
2022/02/16 00:24:49;;;;;;;38.53;21.95;;;;;;;;;;4879173;29;20037;-72
2022/02/16 00:27:14;;;;;;;19.60;10.70;;;;;;;;;;4888795;29;20077;-72
2022/02/16 00:29:41;;;;;;;6.75;2.75;;;;;;;;;;4887028;29;20048;-72
2022/02/16 00:32:07;;;;;;;5.68;1.73;;;;;;;;;;4880422;29;20141;-72
2022/02/16 00:34:33;;;;;;;5.95;1.85;;;;;;;;;;4877885;29;20072;-72
2022/02/16 00:36:59;;;;;;;4.32;1.40;;;;;;;;;;4884990;29;20096;-72
2022/02/16 00:39:25;;;;;;;4.28;1.35;;;;;;;;;;4877394;29;20486;-72
2022/02/16 00:41:51;;;;;;;9.35;3.08;;;;;;;;;;4877299;29;20044;-72
2022/02/16 00:44:17;;;;;;;12.32;6.25;;;;;;;;;;4880644;29;20037;-72
2022/02/16 00:46:43;;;;;;;16.80;8.02;;;;;;;;;;4877250;29;20501;-72
2022/02/16 00:49:09;;;;;;;14.18;7.07;;;;;;;;;;4885401;29;20029;-72
2022/02/16 00:51:35;;;;;;;9.60;4.20;;;;;;;;;;4881402;29;20039;-72
2022/02/16 00:54:01;;;;;;;8.25;3.78;;;;;;;;;;4891581;29;20033;-72
2022/02/16 00:56:27;;;;;;;8.20;3.22;;;;;;;;;;4897249;24;20520;-73
2022/02/16 00:58:53;;;;;;;18.10;10.38;;;;;;;;;;4874298;29;20459;-72
2022/02/16 01:01:19;;;;;;;14.48;7.45;;;;;;;;;;4858567;29;20124;-71
2022/02/16 01:03:45;;;;;;;12.18;6.10;;;;;;;;;;4862250;29;20045;-72
2022/02/16 01:06:12;;;;;;;17.20;9.20;;;;;;;;;;4867059;29;20503;-72
2022/02/16 01:08:38;;;;;;;14.32;6.18;;;;;;;;;;4867129;29;20129;-72
2022/02/16 01:11:04;;;;;;;10.25;4.40;;;;;;;;;;4867438;29;20037;-72
2022/02/16 01:13:30;;;;;;;10.95;5.13;;;;;;;;;;4872222;29;20039;-72
2022/02/16 01:15:56;;;;;;;9.73;3.67;;;;;;;;;;4858141;29;20667;-72
2022/02/16 01:18:23;;;;;;;6.75;2.70;;;;;;;;;;4864713;29;20038;-72
2022/02/16 01:20:49;;;;;;;5.85;2.50;;;;;;;;;;4867616;29;20033;-72
2022/02/16 01:23:15;;;;;;;10.05;4.65;;;;;;;;;;4860103;29;20073;-72
2022/02/16 01:25:41;;;;;;;3.95;1.33;;;;;;;;;;4857543;29;20089;-71
2022/02/16 01:28:07;;;;;;;4.55;1.70;;;;;;;;;;4861213;29;20719;-72
2022/02/16 01:30:33;;;;;;;4.95;1.50;;;;;;;;;;4862182;29;20030;-72
2022/02/16 01:32:59;;;;;;;6.47;2.53;;;;;;;;;;4839706;29;20107;-72
2022/02/16 01:35:25;;;;;;;9.07;3.85;;;;;;;;;;4841366;29;20038;-72
2022/02/16 01:37:51;;;;;;;15.77;8.73;;;;;;;;;;4858015;29;20468;-72
2022/02/16 01:40:17;;;;;;;10.80;4.88;;;;;;;;;;4865411;29;20427;-72
2022/02/16 01:42:43;;;;;;;10.55;4.25;;;;;;;;;;4864456;29;20029;-72
2022/02/16 01:45:09;;;;;;;8.00;2.63;;;;;;;;;;4874122;29;20083;-72
2022/02/16 01:47:38;;;;;;;8.23;3.55;;;;;;;;;;4838809;29;20606;-72
2022/02/16 01:50:05;;;;;;;8.52;2.95;;;;;;;;;;4861734;29;20033;-72
2022/02/16 01:52:31;;;;;;;5.72;2.03;;;;;;;;;;4870142;29;20038;-72
2022/02/16 01:54:57;;;;;;;10.13;3.70;;;;;;;;;;4862742;29;20041;-72
2022/02/16 01:57:24;;;;;;;9.32;4.32;;;;;;;;;;4856872;29;20064;-72
2022/02/16 01:59:50;;;;;;;10.45;5.15;;;;;;;;;;4865233;29;20037;-72
2022/02/16 02:02:16;;;;;;;8.40;3.75;;;;;;;;;;4845683;29;20037;-73
2022/02/16 02:04:42;;;;;;;6.68;2.50;;;;;;;;;;4860309;29;20476;-72
2022/02/16 02:07:08;;;;;;;4.10;1.80;;;;;;;;;;4856566;29;20041;-72
2022/02/16 02:09:34;;;;;;;4.65;1.50;;;;;;;;;;4857229;29;20744;-72
2022/02/16 02:12:00;;;;;;;4.00;1.40;;;;;;;;;;4857501;29;20068;-72
2022/02/16 02:14:26;;;;;;;3.35;1.23;;;;;;;;;;4856938;29;20109;-72
2022/02/16 02:16:52;;;;;;;5.00;1.55;;;;;;;;;;4857425;29;20822;-71
2022/02/16 02:19:18;;;;;;;4.82;2.20;;;;;;;;;;4856502;29;20038;-72
2022/02/16 02:21:48;;;;;;;7.43;3.25;;;;;;;;;;4857095;29;20040;-72
2022/02/16 02:24:14;;;;;;;5.45;2.00;;;;;;;;;;4856422;29;20052;-71
2022/02/16 02:26:40;;;;;;;3.78;1.48;;;;;;;;;;4860403;29;20376;-72
2022/02/16 02:29:06;;;;;;;8.88;2.80;;;;;;;;;;4856550;29;20033;-71
2022/02/16 02:31:36;;;;;;;9.20;2.50;;;;;;;;;;4865932;29;20036;-72
2022/02/16 02:34:03;;;;;;;6.53;2.55;;;;;;;;;;4869659;29;20088;-72
2022/02/16 02:36:29;;;;;;;8.35;3.60;;;;;;;;;;4875944;29;20045;-72
2022/02/16 02:38:55;;;;;;;7.10;3.25;;;;;;;;;;4868706;29;20045;-72
2022/02/16 02:41:22;;;;;;;3.92;1.58;;;;;;;;;;4857045;29;20413;-72
2022/02/16 02:43:49;;;;;;;7.50;2.55;;;;;;;;;;4856630;29;20101;-72
2022/02/16 02:46:15;;;;;;;6.85;2.65;;;;;;;;;;4856364;29;20033;-72
2022/02/16 02:48:41;;;;;;;7.25;2.38;;;;;;;;;;4870565;29;20135;-72
2022/02/16 02:51:07;;;;;;;11.55;4.45;;;;;;;;;;4867836;29;20388;-72
2022/02/16 02:53:34;;;;;;;5.75;2.00;;;;;;;;;;4856867;29;20480;-72
2022/02/16 02:56:01;;;;;;;6.32;2.53;;;;;;;;;;4856497;29;20034;-72
2022/02/16 02:58:27;;;;;;;6.68;2.35;;;;;;;;;;4856203;29;20667;-72
2022/02/16 03:00:53;;;;;;;8.63;2.38;;;;;;;;;;4871439;29;20033;-72
2022/02/16 03:03:19;;;;;;;4.03;1.73;;;;;;;;;;4856072;29;20077;-72
2022/02/16 03:05:45;;;;;;;5.07;1.90;;;;;;;;;;4868022;29;20067;-72
2022/02/16 03:08:11;;;;;;;4.32;1.67;;;;;;;;;;4856312;29;20543;-72
2022/02/16 03:10:37;;;;;;;5.07;1.58;;;;;;;;;;4856355;29;20025;-72
2022/02/16 03:13:03;;;;;;;4.75;1.70;;;;;;;;;;4862262;29;20030;-72
2022/02/16 03:15:29;;;;;;;4.65;1.70;;;;;;;;;;4860879;29;20645;-72
2022/02/16 03:17:55;;;;;;;3.13;0.77;;;;;;;;;;4867581;29;20033;-72
2022/02/16 03:20:21;;;;;;;2.50;0.70;;;;;;;;;;4863259;29;20037;-72
2022/02/16 03:22:47;;;;;;;1.35;0.50;;;;;;;;;;4855308;29;20022;-72
2022/02/16 03:25:13;;;;;;;1.70;0.73;;;;;;;;;;4852617;29;20108;-72
2022/02/16 03:27:39;;;;;;;2.55;0.70;;;;;;;;;;4874694;29;20029;-72
2022/02/16 03:30:09;;;;;;;4.45;1.10;;;;;;;;;;4860630;29;20120;-72
2022/02/16 03:32:35;;;;;;;4.35;1.27;;;;;;;;;;4858889;29;20460;-72
2022/02/16 03:35:01;;;;;;;5.45;1.20;;;;;;;;;;4857263;29;20052;-72
2022/02/16 03:37:27;;;;;;;3.08;0.93;;;;;;;;;;4858311;29;20032;-72
2022/02/16 03:39:53;;;;;;;3.88;1.00;;;;;;;;;;4856855;29;20041;-72
2022/02/16 03:42:20;;;;;;;3.53;1.00;;;;;;;;;;4856578;29;20495;-72
2022/02/16 03:44:46;;;;;;;3.22;0.77;;;;;;;;;;4864338;29;20037;-72
2022/02/16 03:47:12;;;;;;;4.75;1.02;;;;;;;;;;4862778;29;20441;-72
2022/02/16 03:49:38;;;;;;;4.35;0.80;;;;;;;;;;4855868;29;20034;-72
2022/02/16 03:52:04;;;;;;;2.72;0.80;;;;;;;;;;4859601;29;20049;-72
2022/02/16 03:54:31;;;;;;;3.58;1.05;;;;;;;;;;4870827;29;20068;-72
2022/02/16 03:56:57;;;;;;;3.22;1.08;;;;;;;;;;4857862;29;20069;-72
2022/02/16 03:59:22;;;;;;;8.05;2.38;;;;;;;;;;4855981;29;20038;-72
2022/02/16 04:01:48;;;;;;;8.73;2.95;;;;;;;;;;4843486;29;20034;-71
2022/02/16 04:04:14;;;;;;;8.02;2.55;;;;;;;;;;4841388;29;20396;-72
2022/02/16 04:06:40;;;;;;;5.85;2.05;;;;;;;;;;4852317;29;20039;-72
2022/02/16 04:09:06;;;;;;;4.15;1.20;;;;;;;;;;4859205;29;20052;-72
2022/02/16 04:11:33;;;;;;;2.90;1.25;;;;;;;;;;4859280;29;20030;-71
2022/02/16 04:13:58;;;;;;;2.92;1.20;;;;;;;;;;4859179;29;20076;-71
2022/02/16 04:16:25;;;;;;;7.25;1.20;;;;;;;;;;4844542;29;20707;-72
2022/02/16 04:18:51;;;;;;;2.45;1.00;;;;;;;;;;4851487;29;20037;-72
2022/02/16 04:21:17;;;;;;;4.70;1.10;;;;;;;;;;4869181;29;20043;-72
2022/02/16 04:23:43;;;;;;;1.52;0.70;;;;;;;;;;4871629;29;20057;-72
2022/02/16 04:26:10;;;;;;;6.07;1.77;;;;;;;;;;4857234;29;20126;-72
2022/02/16 04:28:36;;;;;;;3.85;1.38;;;;;;;;;;4859096;29;20088;-71
2022/02/16 04:31:02;;;;;;;5.53;2.20;;;;;;;;;;4858403;29;20795;-72
2022/02/16 04:33:28;;;;;;;8.98;2.45;;;;;;;;;;4858831;29;20840;-72
2022/02/16 04:35:54;;;;;;;6.50;2.72;;;;;;;;;;4862442;29;20465;-72
2022/02/16 04:38:20;;;;;;;5.85;2.22;;;;;;;;;;4864787;29;20037;-72
2022/02/16 04:40:46;;;;;;;5.13;1.05;;;;;;;;;;4858583;29;20104;-72
2022/02/16 04:43:12;;;;;;;3.72;1.27;;;;;;;;;;4866861;29;20089;-72
2022/02/16 04:45:38;;;;;;;6.30;2.47;;;;;;;;;;4865968;29;20037;-72
2022/02/16 04:48:05;;;;;;;15.18;7.78;;;;;;;;;;4862332;29;20053;-71
2022/02/16 04:50:31;;;;;;;23.20;14.57;;;;;;;;;;4858808;29;20033;-72
2022/02/16 04:52:57;;;;;;;16.33;8.15;;;;;;;;;;4865119;29;20072;-72
2022/02/16 04:55:24;;;;;;;27.92;19.73;;;;;;;;;;4866172;29;20040;-72
2022/02/16 04:57:50;;;;;;;15.05;9.63;;;;;;;;;;4869707;29;20073;-72
2022/02/16 05:00:17;;;;;;;14.45;7.40;;;;;;;;;;4865887;29;20045;-71
2022/02/16 05:02:43;;;;;;;11.95;6.47;;;;;;;;;;4865517;29;20033;-72
2022/02/16 05:05:09;;;;;;;11.20;5.53;;;;;;;;;;4840548;29;20041;-72
2022/02/16 05:07:35;;;;;;;10.10;5.10;;;;;;;;;;4872511;29;20120;-72
2022/02/16 05:10:01;;;;;;;7.32;3.55;;;;;;;;;;4866202;29;20103;-72
2022/02/16 05:12:27;;;;;;;6.72;2.58;;;;;;;;;;4858048;29;20041;-72
2022/02/16 05:14:53;;;;;;;7.78;2.60;;;;;;;;;;4858563;29;20763;-72
2022/02/16 05:17:19;;;;;;;7.13;2.00;;;;;;;;;;4860952;29;20086;-72
2022/02/16 05:19:45;;;;;;;4.78;1.42;;;;;;;;;;4876605;29;20045;-72
2022/02/16 05:22:11;;;;;;;8.35;3.28;;;;;;;;;;4869657;29;20105;-71
2022/02/16 05:24:37;;;;;;;11.63;5.85;;;;;;;;;;4873190;29;20116;-72
2022/02/16 05:27:03;;;;;;;7.97;3.25;;;;;;;;;;4866439;29;20071;-72
2022/02/16 05:29:30;;;;;;;6.38;2.42;;;;;;;;;;4858493;29;20082;-72
2022/02/16 05:31:56;;;;;;;6.15;2.20;;;;;;;;;;4853956;29;20807;-72
2022/02/16 05:34:22;;;;;;;7.65;3.00;;;;;;;;;;4853464;29;20112;-72
2022/02/16 05:36:48;;;;;;;6.22;2.42;;;;;;;;;;4868487;29;20047;-72
2022/02/16 05:39:13;;;;;;;5.85;2.03;;;;;;;;;;4848087;29;20056;-71
2022/02/16 05:41:39;;;;;;;4.35;1.70;;;;;;;;;;4871743;29;20506;-72
2022/02/16 05:44:06;;;;;;;7.28;2.00;;;;;;;;;;4870487;29;20044;-72
2022/02/16 05:46:32;;;;;;;4.72;1.33;;;;;;;;;;4861886;29;20041;-72
2022/02/16 05:48:58;;;;;;;4.55;1.50;;;;;;;;;;4868558;29;20532;-72
2022/02/16 05:51:24;;;;;;;19.73;6.70;;;;;;;;;;4868346;29;20090;-72
2022/02/16 05:53:50;;;;;;;12.75;5.97;;;;;;;;;;4865790;29;20044;-72
2022/02/16 05:56:16;;;;;;;8.52;3.85;;;;;;;;;;4876236;29;20035;-72
2022/02/16 05:58:42;;;;;;;9.32;3.47;;;;;;;;;;4860356;29;20045;-72
2022/02/16 06:01:08;;;;;;;8.05;3.80;;;;;;;;;;4857952;29;20592;-72
2022/02/16 06:03:34;;;;;;;9.65;3.38;;;;;;;;;;4874852;29;20711;-72
2022/02/16 06:06:00;;;;;;;8.38;3.08;;;;;;;;;;4868494;29;20114;-72
2022/02/16 06:08:26;;;;;;;14.35;8.63;;;;;;;;;;4858338;29;20876;-72
2022/02/16 06:10:56;;;;;;;10.07;4.40;;;;;;;;;;4830159;29;20041;-72
2022/02/16 06:13:23;;;;;;;6.93;2.58;;;;;;;;;;4846316;29;20063;-71
2022/02/16 06:15:49;;;;;;;8.75;2.00;;;;;;;;;;4837201;29;20433;-72
2022/02/16 06:18:15;;;;;;;5.32;1.98;;;;;;;;;;4832789;29;20077;-71
2022/02/16 06:20:41;;;;;;;4.75;2.00;;;;;;;;;;4836117;29;20053;-72
2022/02/16 06:23:07;;;;;;;9.02;4.18;;;;;;;;;;4839706;29;20477;-72
2022/02/16 06:25:33;;;;;;;10.88;4.65;;;;;;;;;;4837314;29;20037;-72
2022/02/16 06:28:03;;;;;;;10.63;5.47;;;;;;;;;;4826760;29;20050;-72
2022/02/16 06:30:29;;;;;;;10.30;5.75;;;;;;;;;;4833552;29;20030;-71
2022/02/16 06:32:55;;;;;;;12.70;7.50;;;;;;;;;;4832560;29;20534;-72
2022/02/16 06:35:21;;;;;;;16.38;10.27;;;;;;;;;;4830628;29;20048;-72
2022/02/16 06:37:47;;;;;;;20.33;11.13;;;;;;;;;;4837655;29;20033;-72
2022/02/16 06:40:14;;;;;;;16.85;9.75;;;;;;;;;;4835483;29;20116;-72
2022/02/16 06:42:40;;;;;;;21.33;12.77;;;;;;;;;;4837551;29;20666;-72
2022/02/16 06:45:07;;;;;;;26.13;15.73;;;;;;;;;;4838699;29;20042;-72
2022/02/16 06:47:33;;;;;;;29.35;15.15;;;;;;;;;;4838063;29;20042;-71
2022/02/16 06:49:59;;;;;;;14.63;8.20;;;;;;;;;;4848004;29;20121;-72
2022/02/16 06:52:25;;;;;;;12.60;5.65;;;;;;;;;;4836439;29;20113;-72
2022/02/16 06:54:51;;;;;;;7.32;3.22;;;;;;;;;;4834892;29;20707;-72
2022/02/16 06:57:17;;;;;;;7.90;2.33;;;;;;;;;;4842177;29;20064;-72
2022/02/16 06:59:44;;;;;;;7.22;1.98;;;;;;;;;;4838973;29;20038;-72
2022/02/16 07:02:10;;;;;;;4.40;1.45;;;;;;;;;;4838291;29;20042;-72
2022/02/16 07:04:36;;;;;;;6.85;2.05;;;;;;;;;;4838384;29;20046;-71
2022/02/16 07:07:02;;;;;;;7.10;2.50;;;;;;;;;;4843269;29;20113;-72
2022/02/16 07:09:28;;;;;;;8.98;3.85;;;;;;;;;;4844180;29;20057;-72
2022/02/16 07:11:54;;;;;;;7.15;2.97;;;;;;;;;;4846944;29;20134;-72
2022/02/16 07:14:21;;;;;;;11.30;4.00;;;;;;;;;;4837819;29;20029;-71
2022/02/16 07:16:47;;;;;;;18.48;8.65;;;;;;;;;;4839277;29;20041;-71
2022/02/16 07:19:13;;;;;;;7.63;2.78;;;;;;;;;;4839097;29;20033;-71
2022/02/16 07:21:39;;;;;;;7.35;2.75;;;;;;;;;;4838962;29;20074;-72
2022/02/16 07:24:05;;;;;;;9.80;2.85;;;;;;;;;;4839357;29;20110;-71
2022/02/16 07:26:31;;;;;;;8.93;3.47;;;;;;;;;;4835524;29;20501;-72
2022/02/16 07:28:58;;;;;;;11.57;3.35;;;;;;;;;;4841592;29;20065;-71
2022/02/16 07:31:24;;;;;;;15.13;4.00;;;;;;;;;;4843418;29;20034;-71
2022/02/16 07:33:50;;;;;;;14.80;4.85;;;;;;;;;;4837447;29;20045;-71
2022/02/16 07:36:16;;;;;;;11.90;4.57;;;;;;;;;;4843942;29;20033;-72
2022/02/16 07:38:43;;;;;;;23.05;11.27;;;;;;;;;;4843390;29;20041;-72
2022/02/16 07:41:09;;;;;;;18.48;5.53;;;;;;;;;;4848735;29;20396;-71
2022/02/16 07:43:35;;;;;;;15.13;5.40;;;;;;;;;;4842675;29;20049;-72
2022/02/16 07:46:01;;;;;;;13.90;4.70;;;;;;;;;;4842884;29;20034;-71
2022/02/16 07:48:27;;;;;;;15.23;4.95;;;;;;;;;;4846545;29;20072;-71
2022/02/16 07:50:53;;;;;;;12.18;4.57;;;;;;;;;;4845279;29;20061;-72
2022/02/16 07:53:19;;;;;;;15.95;4.03;;;;;;;;;;4844129;29;20117;-72
2022/02/16 07:55:45;;;;;;;13.93;3.90;;;;;;;;;;4838398;29;20466;-72
2022/02/16 07:58:11;;;;;;;10.10;3.10;;;;;;;;;;4838671;29;20054;-71
2022/02/16 08:00:38;;;;;;;8.23;3.17;;;;;;;;;;4846885;29;20041;-72
2022/02/16 08:03:07;;;;;;;14.57;4.20;;;;;;;;;;4845709;29;20515;-71
2022/02/16 08:05:34;;;;;;;13.05;5.05;;;;;;;;;;4840486;29;20811;-71
2022/02/16 08:08:00;;;;;;;12.88;5.43;;;;;;;;;;4840615;29;20042;-71
2022/02/16 08:10:26;;;;;;;19.05;5.90;;;;;;;;;;4840505;29;20167;-72
2022/02/16 08:12:56;;;;;;;11.90;5.32;;;;;;;;;;4835200;29;20566;-71
2022/02/16 08:15:22;;;;;;;15.40;7.22;;;;;;;;;;4850982;29;20120;-71
2022/02/16 08:17:48;;;;;;;16.40;8.27;;;;;;;;;;4840102;29;20583;-72
2022/02/16 08:20:14;;;;;;;15.70;8.60;;;;;;;;;;4838836;29;20046;-71
2022/02/16 08:22:40;;;;;;;15.90;5.70;;;;;;;;;;4845369;29;20042;-71
2022/02/16 08:25:07;;;;;;;10.70;3.20;;;;;;;;;;4846149;29;20500;-72
2022/02/16 08:27:33;;;;;;;11.45;3.20;;;;;;;;;;4810293;29;20042;-72
2022/02/16 08:30:00;;;;;;;13.43;4.85;;;;;;;;;;4834424;29;20552;-72
2022/02/16 08:32:26;;;;;;;11.40;4.13;;;;;;;;;;4840086;29;20037;-72
2022/02/16 08:34:52;;;;;;;18.15;5.57;;;;;;;;;;4840899;29;20052;-72
2022/02/16 08:37:18;;;;;;;17.52;6.00;;;;;;;;;;4844026;29;20041;-72
2022/02/16 08:39:44;;;;;;;11.55;4.65;;;;;;;;;;4840884;29;20480;-72
2022/02/16 08:42:10;;;;;;;13.95;4.70;;;;;;;;;;4843227;29;20034;-72
2022/02/16 08:44:36;;;;;;;11.48;4.28;;;;;;;;;;4840024;29;20441;-72
2022/02/16 08:47:04;;;;;;;10.02;3.70;;;;;;;;;;4842093;29;20133;-71
2022/02/16 08:49:30;;;;;;;21.08;5.88;;;;;;;;;;4851105;29;20038;-71
2022/02/16 08:51:56;;;;;;;15.13;6.00;;;;;;;;;;4855450;29;20494;-72
2022/02/16 08:54:22;;;;;;;14.85;5.25;;;;;;;;;;4841291;29;20042;-72
2022/02/16 08:56:49;;;;;;;13.07;4.28;;;;;;;;;;4836074;29;20050;-72
2022/02/16 08:59:15;;;;;;;9.25;3.55;;;;;;;;;;4839034;29;20108;-72
2022/02/16 09:01:42;;;;;;;14.18;4.38;;;;;;;;;;4843788;29;20037;-71
2022/02/16 09:04:08;;;;;;;14.45;4.25;;;;;;;;;;4842502;29;20554;-71
2022/02/16 09:06:35;;;;;;;14.77;4.72;;;;;;;;;;4849322;29;20071;-72
2022/02/16 09:09:01;;;;;;;13.23;5.63;;;;;;;;;;4841404;29;20050;-71
2022/02/16 09:11:29;;;;;;;13.10;6.50;;;;;;;;;;4839674;29;20060;-71
2022/02/16 09:13:55;;;;;;;17.00;7.13;;;;;;;;;;4835464;29;20034;-72
2022/02/16 09:16:21;;;;;;;16.98;7.55;;;;;;;;;;4840243;29;20234;-72
2022/02/16 09:18:47;;;;;;;18.45;8.93;;;;;;;;;;4839095;29;20087;-72
2022/02/16 09:21:13;;;;;;;21.58;9.23;;;;;;;;;;4840246;29;20044;-72
2022/02/16 09:23:41;;;;;;;19.92;9.48;;;;;;;;;;4840295;29;20065;-71
2022/02/16 09:26:07;;;;;;;15.90;8.13;;;;;;;;;;4839784;29;20115;-71
2022/02/16 09:28:34;;;;;;;20.27;8.55;;;;;;;;;;4839636;29;20073;-72
2022/02/16 09:31:01;;;;;;;18.40;8.68;;;;;;;;;;4838936;29;20803;-72
2022/02/16 09:33:28;;;;;;;14.00;5.00;;;;;;;;;;4847681;29;20047;-71
2022/02/16 09:35:55;;;;;;;10.45;3.92;;;;;;;;;;4825994;29;20063;-72
2022/02/16 09:38:21;;;;;;;8.75;3.35;;;;;;;;;;4842190;29;20048;-71
2022/02/16 09:40:48;;;;;;;11.35;4.20;;;;;;;;;;4838704;29;20034;-72
2022/02/16 09:43:17;;;;;;;9.02;2.85;;;;;;;;;;4836981;29;20037;-72
2022/02/16 09:45:44;;;;;;;12.13;4.82;;;;;;;;;;4842542;29;20065;-71
2022/02/16 09:48:10;;;;;;;13.43;4.90;;;;;;;;;;4855381;29;20049;-72
2022/02/16 09:50:36;;;;;;;14.00;4.18;;;;;;;;;;4849232;29;20094;-71
2022/02/16 09:53:02;;;;;;;11.02;4.38;;;;;;;;;;4844652;29;20038;-71
2022/02/16 09:55:29;;;;;;;14.25;5.70;;;;;;;;;;4849811;29;20041;-71
2022/02/16 09:57:55;;;;;;;15.43;5.88;;;;;;;;;;4842082;29;20106;-71
2022/02/16 10:00:21;;;;;;;16.13;5.30;;;;;;;;;;4834645;29;20042;-71
2022/02/16 10:02:47;;;;;;;18.63;5.70;;;;;;;;;;4841767;29;20037;-71
2022/02/16 10:05:15;;;;;;;13.27;4.35;;;;;;;;;;4838509;29;20042;-71
2022/02/16 10:07:45;;;;;;;11.98;3.95;;;;;;;;;;4841980;29;20041;-71
2022/02/16 10:10:21;;;;;;;10.50;4.60;;;;;;;;;;4839108;29;20038;-72
2022/02/16 10:12:57;;;;;;;22.30;5.80;;;;;;;;;;4840889;29;20381;-72
2022/02/16 10:15:24;;;;;;;14.30;5.70;;;;;;;;;;4839102;29;20466;-72
2022/02/16 10:18:07;;;;;;;13.60;6.10;;;;;;;;;;4835005;29;20038;-72
2022/02/16 10:20:34;;;;;;;23.58;6.95;;;;;;;;;;4837835;29;20853;-71
2022/02/16 10:23:00;;;;;;;13.02;6.45;;;;;;;;;;4839424;29;20408;-72
2022/02/16 10:25:27;;;;;;;20.85;7.18;;;;;;;;;;4838266;29;20041;-71
2022/02/16 10:28:12;;;;;;;17.80;6.00;;;;;;;;;;4839052;29;20042;-71
2022/02/16 10:30:54;;;;;;;17.30;6.38;;;;;;;;;;4833754;29;20121;-71
2022/02/16 10:33:21;;;;;;;;;;;;;;;;;;4837043;29;20488;-71
2022/02/16 10:35:48;;;;;;;4.65;2.85;;;;;;;;;;4835001;29;19912;-72
2022/02/16 10:38:14;;;;;;;13.77;5.90;;;;;;;;;;4838582;29;20071;-72
2022/02/16 10:40:40;;;;;;;6.22;2.70;;;;;;;;;;4832200;29;20083;-71
2022/02/16 10:43:06;;;;;;;10.15;2.75;;;;;;;;;;4838738;29;20069;-72
2022/02/16 10:45:33;;;;;;;10.63;3.67;;;;;;;;;;4837928;29;20481;-73
2022/02/16 10:48:08;;;;;;;14.70;6.97;;;;;;;;;;4838258;29;20146;-72
2022/02/16 10:50:34;;;;;;;10.55;5.22;;;;;;;;;;4837658;29;20026;-72
2022/02/16 10:53:00;;;;;;;12.32;5.57;;;;;;;;;;4838765;29;20038;-72
2022/02/16 10:55:45;;;;;;;11.68;5.90;;;;;;;;;;4821121;29;20030;-72
2022/02/16 10:58:13;;;;;;;12.38;6.13;;;;;;;;;;4845735;29;20057;-72
2022/02/16 11:00:40;;;;;;;15.13;7.03;;;;;;;;;;4837406;29;20045;-71
2022/02/16 11:03:07;;;;;;;22.58;12.25;;;;;;;;;;4845481;29;20480;-72
2022/02/16 11:05:36;;;;;;;16.10;9.15;;;;;;;;;;4815088;29;20085;-72
2022/02/16 11:08:03;;;;;;;14.82;6.57;;;;;;;;;;4837865;29;20152;-71
2022/02/16 11:10:29;;;;;;;9.70;4.55;;;;;;;;;;4839414;29;20863;-72
2022/02/16 11:12:56;;;;;;;10.02;4.60;;;;;;;;;;4839252;29;20038;-71
2022/02/16 11:15:23;;;;;;;11.23;5.47;;;;;;;;;;4834980;29;20122;-71
2022/02/16 11:17:49;;;;;;;15.20;9.07;;;;;;;;;;4850347;29;20037;-71
2022/02/16 11:20:22;;;;;;;15.30;8.50;;;;;;;;;;4844397;29;20055;-71
2022/02/16 11:22:48;;;;;;;15.98;6.53;;;;;;;;;;4843694;29;20041;-72
2022/02/16 11:25:34;;;;;;;15.13;8.55;;;;;;;;;;4844293;29;20386;-72
2022/02/16 11:28:00;;;;;;;49.38;33.42;;;;;;;;;;4846641;29;20089;-72
2022/02/16 11:30:35;;;;;;;54.38;35.70;;;;;;;;;;4838533;29;20027;-72
2022/02/16 11:33:11;;;;;;;23.17;14.15;;;;;;;;;;4832581;29;20262;-71
2022/02/16 11:36:00;;;;;;;25.27;18.35;;;;;;;;;;4844180;29;20040;-72
2022/02/16 11:38:46;;;;;;;18.77;11.43;;;;;;;;;;4830249;29;20137;-72
2022/02/16 11:41:19;;;;;;;11.73;7.18;;;;;;;;;;4843840;29;20038;-72
2022/02/16 11:43:51;;;;;;;17.00;8.93;;;;;;;;;;4839698;29;20042;-72
2022/02/16 11:46:38;;;;;;;14.35;7.03;;;;;;;;;;4849218;29;20588;-72
2022/02/16 11:49:05;;;;;;;16.50;10.38;;;;;;;;;;4833731;29;20150;-72
2022/02/16 11:51:35;;;;;;;14.57;9.45;;;;;;;;;;4843615;29;20038;-72
2022/02/16 11:54:20;;;;;;;8.75;4.28;;;;;;;;;;4825127;29;20046;-72
2022/02/16 11:56:46;;;;;;;7.43;4.13;;;;;;;;;;4839572;29;20057;-72
2022/02/16 11:59:12;;;;;;;9.52;4.57;;;;;;;;;;4843543;29;20046;-72
2022/02/16 12:01:57;;;;;;;7.13;3.47;;;;;;;;;;4844226;29;20026;-72
2022/02/16 12:04:30;;;;;;;7.60;3.28;;;;;;;;;;4848032;29;20744;-71
2022/02/16 12:07:16;;;;;;;17.15;10.75;;;;;;;;;;4843773;29;20029;-72
2022/02/16 12:09:42;;;;;;;11.43;6.45;;;;;;;;;;4843766;29;20038;-71
2022/02/16 12:12:11;;;;;;;11.88;6.35;;;;;;;;;;4843144;29;20117;-71
2022/02/16 12:14:37;;;;;;;8.80;5.07;;;;;;;;;;4843594;29;20061;-71
2022/02/16 12:17:04;;;;;;;7.90;4.90;;;;;;;;;;4843781;29;20034;-72
2022/02/16 12:19:30;;;;;;;7.25;3.88;;;;;;;;;;4846449;29;20065;-72
2022/02/16 12:21:56;;;;;;;9.68;4.55;;;;;;;;;;4842430;29;20066;-72
2022/02/16 12:24:26;;;;;;;12.35;6.15;;;;;;;;;;4831638;29;20042;-71
2022/02/16 12:26:55;;;;;;;9.60;6.22;;;;;;;;;;4842528;29;20488;-72
2022/02/16 12:29:21;;;;;;;6.18;2.63;;;;;;;;;;4840407;29;20430;-72
2022/02/16 12:31:49;;;;;;;8.55;3.22;;;;;;;;;;4839925;29;20094;-71
2022/02/16 12:34:17;;;;;;;7.18;3.40;;;;;;;;;;4851159;29;20041;-71
2022/02/16 12:36:50;;;;;;;6.85;3.92;;;;;;;;;;4849003;29;20061;-72
2022/02/16 12:39:16;;;;;;;9.57;5.40;;;;;;;;;;4840103;29;20089;-72
2022/02/16 12:41:46;;;;;;;12.88;6.43;;;;;;;;;;4840327;29;20826;-72
2022/02/16 12:44:14;;;;;;;11.15;6.07;;;;;;;;;;4843810;29;20094;-72
2022/02/16 12:46:41;;;;;;;16.63;7.43;;;;;;;;;;4847247;29;20109;-72
2022/02/16 12:49:11;;;;;;;7.28;3.65;;;;;;;;;;4840944;29;20041;-72
2022/02/16 12:51:39;;;;;;;7.03;3.95;;;;;;;;;;4839497;29;20038;-72
2022/02/16 12:54:06;;;;;;;7.30;4.68;;;;;;;;;;4840248;29;20094;-71
2022/02/16 12:56:34;;;;;;;16.45;7.95;;;;;;;;;;4839705;29;20485;-71
2022/02/16 12:59:10;;;;;;;7.88;3.97;;;;;;;;;;4835005;29;20050;-71
2022/02/16 13:01:41;;;;;;;11.02;4.45;;;;;;;;;;4839585;29;20038;-72
2022/02/16 13:04:07;;;;;;;9.23;5.07;;;;;;;;;;4840881;29;20418;-72
2022/02/16 13:06:37;;;;;;;9.82;5.13;;;;;;;;;;4839514;29;20046;-72
2022/02/16 13:09:04;;;;;;;12.55;5.65;;;;;;;;;;4842035;29;20038;-72
2022/02/16 13:11:39;;;;;;;9.45;5.07;;;;;;;;;;4840179;29;20052;-72
2022/02/16 13:14:09;;;;;;;11.90;5.65;;;;;;;;;;4835966;29;20034;-72
2022/02/16 13:16:35;;;;;;;5.03;2.65;;;;;;;;;;4840240;29;20431;-72
2022/02/16 13:19:02;;;;;;;10.65;5.00;;;;;;;;;;4839333;29;20088;-71
2022/02/16 13:21:29;;;;;;;15.10;8.55;;;;;;;;;;4839803;29;20508;-71
2022/02/16 13:24:09;;;;;;;7.90;2.40;;;;;;;;;;4824091;29;20443;-72
2022/02/16 13:26:40;;;;;;;6.22;2.85;;;;;;;;;;4838896;29;20102;-72
2022/02/16 13:29:06;;;;;;;4.88;1.98;;;;;;;;;;4841823;29;20036;-72
2022/02/16 13:31:37;;;;;;;5.50;2.83;;;;;;;;;;4839516;29;20080;-72
2022/02/16 13:34:04;;;;;;;9.70;4.97;;;;;;;;;;4835185;29;20453;-71
2022/02/16 13:36:36;;;;;;;8.45;3.90;;;;;;;;;;4835075;29;20037;-72
2022/02/16 13:39:09;;;;;;;4.32;1.60;;;;;;;;;;4834553;29;20040;-72
2022/02/16 13:41:37;;;;;;;5.25;2.70;;;;;;;;;;4838903;29;20430;-72
2022/02/16 13:44:03;;;;;;;9.40;5.80;;;;;;;;;;4838402;29;20052;-72
2022/02/16 13:46:45;;;;;;;11.38;5.40;;;;;;;;;;4840558;29;20041;-71
2022/02/16 13:49:12;;;;;;;9.23;4.47;;;;;;;;;;4839695;29;20064;-72
2022/02/16 13:51:50;;;;;;;11.27;5.75;;;;;;;;;;4839353;29;20064;-71
2022/02/16 13:54:17;;;;;;;9.85;5.90;;;;;;;;;;4841267;29;20026;-72
2022/02/16 13:56:48;;;;;;;11.10;6.25;;;;;;;;;;4838229;29;20060;-72
2022/02/16 13:59:14;;;;;;;16.17;6.90;;;;;;;;;;4838535;29;20037;-72
2022/02/16 14:01:40;;;;;;;17.88;6.80;;;;;;;;;;4844269;29;20038;-72
2022/02/16 14:04:08;;;;;;;13.82;5.10;;;;;;;;;;4839049;29;20046;-71
2022/02/16 14:06:34;;;;;;;11.27;5.60;;;;;;;;;;4845318;29;20046;-72
2022/02/16 14:09:03;;;;;;;11.60;5.45;;;;;;;;;;4838326;29;20046;-71
2022/02/16 14:11:31;;;;;;;9.68;4.85;;;;;;;;;;4838523;29;20030;-72
2022/02/16 14:13:58;;;;;;;11.90;5.15;;;;;;;;;;4838663;29;20045;-72
2022/02/16 14:16:26;;;;;;;10.20;4.88;;;;;;;;;;4838741;29;20030;-72
2022/02/16 14:21:38;;;;;;;12.07;6.07;;;;;;;;;;4839180;29;20052;-72
2022/02/16 14:24:04;;;;;;;10.60;4.88;;;;;;;;;;4842019;29;20073;-72
2022/02/16 14:26:30;;;;;;;11.30;5.47;;;;;;;;;;4838654;29;20777;-72
2022/02/16 14:28:56;;;;;;;11.32;6.78;;;;;;;;;;4846023;29;20041;-72
2022/02/16 14:31:22;;;;;;;11.02;5.45;;;;;;;;;;4839019;29;20057;-71
2022/02/16 14:33:48;;;;;;;14.50;7.00;;;;;;;;;;4840830;29;20034;-71
2022/02/16 14:36:14;;;;;;;13.45;7.38;;;;;;;;;;4848290;29;20041;-72
2022/02/16 14:38:40;;;;;;;10.85;6.38;;;;;;;;;;4841255;29;20528;-72